sensor_id;sensor_type;location;lat;lon;timestamp;temperature;humidity
49441;DHT22;35317;51.978;6.296;2022-10-31T00:04:34;13.80;99.90
49441;DHT22;35317;51.978;6.296;2022-10-31T00:09:35;13.70;99.90
49441;DHT22;35317;51.978;6.296;2022-10-31T00:14:35;13.70;99.90
49441;DHT22;35317;51.978;6.296;2022-10-31T00:19:36;13.60;99.90
49441;DHT22;35317;51.978;6.296;2022-10-31T00:24:37;13.50;99.90
49441;DHT22;35317;51.978;6.296;2022-10-31T00:29:38;13.50;99.90
49441;DHT22;35317;51.978;6.296;2022-10-31T00:34:38;13.40;99.90
49441;DHT22;35317;51.978;6.296;2022-10-31T00:39:39;13.40;99.90
49441;DHT22;35317;51.978;6.296;2022-10-31T00:44:40;13.30;99.90
49441;DHT22;35317;51.978;6.296;2022-10-31T00:49:40;13.20;99.90
49441;DHT22;35317;51.978;6.296;2022-10-31T00:54:41;13.10;99.90
49441;DHT22;35317;51.978;6.296;2022-10-31T00:59:42;13.10;99.90
49441;DHT22;35317;51.978;6.296;2022-10-31T01:04:43;13.00;99.90
49441;DHT22;35317;51.978;6.296;2022-10-31T01:09:44;12.90;99.90
49441;DHT22;35317;51.978;6.296;2022-10-31T01:14:45;12.90;99.90
49441;DHT22;35317;51.978;6.296;2022-10-31T01:19:46;12.80;99.90
49441;DHT22;35317;51.978;6.296;2022-10-31T01:24:46;12.70;99.90
49441;DHT22;35317;51.978;6.296;2022-10-31T01:29:47;12.60;99.90
49441;DHT22;35317;51.978;6.296;2022-10-31T01:34:48;12.60;99.90
49441;DHT22;35317;51.978;6.296;2022-10-31T01:39:49;12.50;99.90
49441;DHT22;35317;51.978;6.296;2022-10-31T01:44:53;12.50;99.90
49441;DHT22;35317;51.978;6.296;2022-10-31T01:49:58;12.50;99.90
49441;DHT22;35317;51.978;6.296;2022-10-31T01:55:05;12.50;99.90
49441;DHT22;35317;51.978;6.296;2022-10-31T02:00:09;12.40;99.90
49441;DHT22;35317;51.978;6.296;2022-10-31T02:05:16;12.40;99.90
49441;DHT22;35317;51.978;6.296;2022-10-31T02:10:20;12.30;99.90
49441;DHT22;35317;51.978;6.296;2022-10-31T02:15:21;12.30;99.90
49441;DHT22;35317;51.978;6.296;2022-10-31T02:20:24;12.30;99.90
49441;DHT22;35317;51.978;6.296;2022-10-31T02:36:43;12.20;99.90
49441;DHT22;35317;51.978;6.296;2022-10-31T02:47:36;12.20;99.90
49441;DHT22;35317;51.978;6.296;2022-10-31T02:52:38;12.20;99.90
49441;DHT22;35317;51.978;6.296;2022-10-31T02:57:40;12.20;99.90
49441;DHT22;35317;51.978;6.296;2022-10-31T03:18:36;12.20;99.90
49441;DHT22;35317;51.978;6.296;2022-10-31T03:23:42;12.20;99.90
49441;DHT22;35317;51.978;6.296;2022-10-31T03:28:49;12.10;99.90
49441;DHT22;35317;51.978;6.296;2022-10-31T03:33:54;11.90;99.90
49441;DHT22;35317;51.978;6.296;2022-10-31T03:38:57;11.90;99.90
49441;DHT22;35317;51.978;6.296;2022-10-31T03:44:03;11.80;99.90
49441;DHT22;35317;51.978;6.296;2022-10-31T03:49:09;11.60;99.90
49441;DHT22;35317;51.978;6.296;2022-10-31T03:54:25;11.50;99.90
49441;DHT22;35317;51.978;6.296;2022-10-31T03:59:34;11.40;99.90
49441;DHT22;35317;51.978;6.296;2022-10-31T04:04:37;11.40;99.90
49441;DHT22;35317;51.978;6.296;2022-10-31T04:09:42;11.30;99.90
49441;DHT22;35317;51.978;6.296;2022-10-31T04:14:47;11.20;99.90
49441;DHT22;35317;51.978;6.296;2022-10-31T04:19:48;11.10;99.90
49441;DHT22;35317;51.978;6.296;2022-10-31T04:24:49;11.00;99.90
49441;DHT22;35317;51.978;6.296;2022-10-31T04:29:49;11.00;99.90
49441;DHT22;35317;51.978;6.296;2022-10-31T04:34:50;10.90;99.90
49441;DHT22;35317;51.978;6.296;2022-10-31T04:39:51;10.90;99.90
49441;DHT22;35317;51.978;6.296;2022-10-31T04:44:51;10.90;99.90
49441;DHT22;35317;51.978;6.296;2022-10-31T04:49:52;10.80;99.90
49441;DHT22;35317;51.978;6.296;2022-10-31T04:54:53;10.70;99.90
49441;DHT22;35317;51.978;6.296;2022-10-31T04:59:54;10.70;99.90
49441;DHT22;35317;51.978;6.296;2022-10-31T05:04:54;10.60;99.90
49441;DHT22;35317;51.978;6.296;2022-10-31T05:09:55;10.60;99.90
49441;DHT22;35317;51.978;6.296;2022-10-31T05:14:56;10.50;99.90
49441;DHT22;35317;51.978;6.296;2022-10-31T05:19:57;10.50;99.90
49441;DHT22;35317;51.978;6.296;2022-10-31T05:24:57;10.50;99.90
49441;DHT22;35317;51.978;6.296;2022-10-31T05:29:58;10.40;99.90
49441;DHT22;35317;51.978;6.296;2022-10-31T05:34:59;10.40;99.90
49441;DHT22;35317;51.978;6.296;2022-10-31T05:39:59;10.30;99.90
49441;DHT22;35317;51.978;6.296;2022-10-31T05:45:01;10.40;99.90
49441;DHT22;35317;51.978;6.296;2022-10-31T05:50:02;10.40;99.90
49441;DHT22;35317;51.978;6.296;2022-10-31T05:55:03;10.30;99.90
49441;DHT22;35317;51.978;6.296;2022-10-31T06:00:05;10.30;99.90
49441;DHT22;35317;51.978;6.296;2022-10-31T06:05:07;10.30;99.90
49441;DHT22;35317;51.978;6.296;2022-10-31T06:10:08;10.20;99.90
49441;DHT22;35317;51.978;6.296;2022-10-31T06:15:09;10.20;99.90
49441;DHT22;35317;51.978;6.296;2022-10-31T06:20:10;10.20;99.90
49441;DHT22;35317;51.978;6.296;2022-10-31T06:25:11;10.20;99.90
49441;DHT22;35317;51.978;6.296;2022-10-31T06:30:12;10.10;99.90
49441;DHT22;35317;51.978;6.296;2022-10-31T06:35:13;10.10;99.90
49441;DHT22;35317;51.978;6.296;2022-10-31T06:40:14;10.10;99.90
49441;DHT22;35317;51.978;6.296;2022-10-31T06:45:15;10.10;99.90
49441;DHT22;35317;51.978;6.296;2022-10-31T06:50:15;10.10;99.90
49441;DHT22;35317;51.978;6.296;2022-10-31T06:55:16;10.10;99.90
49441;DHT22;35317;51.978;6.296;2022-10-31T07:00:17;10.10;99.90
49441;DHT22;35317;51.978;6.296;2022-10-31T07:05:18;10.10;99.90
49441;DHT22;35317;51.978;6.296;2022-10-31T07:10:19;10.00;99.90
49441;DHT22;35317;51.978;6.296;2022-10-31T07:15:20;10.10;99.90
49441;DHT22;35317;51.978;6.296;2022-10-31T08:33:44;10.70;99.90
49441;DHT22;35317;51.978;6.296;2022-10-31T08:38:46;11.00;99.90
49441;DHT22;35317;51.978;6.296;2022-10-31T08:43:47;11.40;99.90
49441;DHT22;35317;51.978;6.296;2022-10-31T08:48:48;11.80;99.90
49441;DHT22;35317;51.978;6.296;2022-10-31T08:53:49;12.10;99.90
49441;DHT22;35317;51.978;6.296;2022-10-31T08:58:52;12.40;99.90
49441;DHT22;35317;51.978;6.296;2022-10-31T09:03:53;12.70;99.90
49441;DHT22;35317;51.978;6.296;2022-10-31T09:08:54;12.90;99.90
49441;DHT22;35317;51.978;6.296;2022-10-31T09:13:54;13.20;99.90
49441;DHT22;35317;51.978;6.296;2022-10-31T09:18:55;13.40;99.90
49441;DHT22;35317;51.978;6.296;2022-10-31T09:23:56;13.60;99.90
49441;DHT22;35317;51.978;6.296;2022-10-31T09:28:56;13.80;99.90
49441;DHT22;35317;51.978;6.296;2022-10-31T09:33:58;14.10;99.90
49441;DHT22;35317;51.978;6.296;2022-10-31T09:38:59;14.40;99.90
49441;DHT22;35317;51.978;6.296;2022-10-31T09:55:44;15.00;99.90
49441;DHT22;35317;51.978;6.296;2022-10-31T10:00:46;15.20;99.90
49441;DHT22;35317;51.978;6.296;2022-10-31T10:06:09;15.30;99.90
49441;DHT22;35317;51.978;6.296;2022-10-31T10:16:47;15.80;99.90
49441;DHT22;35317;51.978;6.296;2022-10-31T10:32:54;16.40;99.90
49441;DHT22;35317;51.978;6.296;2022-10-31T10:38:10;16.60;99.90
49441;DHT22;35317;51.978;6.296;2022-10-31T10:59:45;17.10;98.50
49441;DHT22;35317;51.978;6.296;2022-10-31T11:04:54;17.20;98.20
49441;DHT22;35317;51.978;6.296;2022-10-31T11:10:04;17.30;97.60
49441;DHT22;35317;51.978;6.296;2022-10-31T11:15:23;17.40;97.70
49441;DHT22;35317;51.978;6.296;2022-10-31T11:20:34;17.60;96.70
49441;DHT22;35317;51.978;6.296;2022-10-31T11:25:36;17.70;96.70
49441;DHT22;35317;51.978;6.296;2022-10-31T11:30:46;17.90;96.20
49441;DHT22;35317;51.978;6.296;2022-10-31T11:35:49;18.10;95.50
49441;DHT22;35317;51.978;6.296;2022-10-31T11:40:55;18.10;95.00
49441;DHT22;35317;51.978;6.296;2022-10-31T11:45:58;18.10;94.70
49441;DHT22;35317;51.978;6.296;2022-10-31T11:50:59;18.00;94.40
49441;DHT22;35317;51.978;6.296;2022-10-31T11:56:09;18.00;94.40
49441;DHT22;35317;51.978;6.296;2022-10-31T12:01:25;18.10;94.20
49441;DHT22;35317;51.978;6.296;2022-10-31T12:06:32;18.40;94.30
49441;DHT22;35317;51.978;6.296;2022-10-31T12:11:51;18.70;94.20
49441;DHT22;35317;51.978;6.296;2022-10-31T12:17:16;19.00;93.60
49441;DHT22;35317;51.978;6.296;2022-10-31T12:22:31;19.30;92.80
49441;DHT22;35317;51.978;6.296;2022-10-31T12:33:56;19.10;91.00
49441;DHT22;35317;51.978;6.296;2022-10-31T12:45:43;18.90;91.80
49441;DHT22;35317;51.978;6.296;2022-10-31T13:01:49;18.90;91.40
49441;DHT22;35317;51.978;6.296;2022-10-31T13:07:01;18.90;91.30
49441;DHT22;35317;51.978;6.296;2022-10-31T13:12:09;18.80;91.20
49441;DHT22;35317;51.978;6.296;2022-10-31T13:17:35;18.80;91.30
49441;DHT22;35317;51.978;6.296;2022-10-31T13:22:42;18.70;91.50
49441;DHT22;35317;51.978;6.296;2022-10-31T13:28:03;18.60;91.50
49441;DHT22;35317;51.978;6.296;2022-10-31T13:33:33;18.60;91.70
49441;DHT22;35317;51.978;6.296;2022-10-31T13:44:28;18.50;92.00
49441;DHT22;35317;51.978;6.296;2022-10-31T13:54:33;18.30;92.40
49441;DHT22;35317;51.978;6.296;2022-10-31T13:59:37;18.20;92.60
49441;DHT22;35317;51.978;6.296;2022-10-31T14:04:46;18.10;92.70
49441;DHT22;35317;51.978;6.296;2022-10-31T14:25:35;18.00;93.30
49441;DHT22;35317;51.978;6.296;2022-10-31T14:30:37;17.90;93.50
49441;DHT22;35317;51.978;6.296;2022-10-31T14:36:01;17.90;93.70
49441;DHT22;35317;51.978;6.296;2022-10-31T14:47:11;17.80;94.00
49441;DHT22;35317;51.978;6.296;2022-10-31T14:52:38;17.70;94.20
49441;DHT22;35317;51.978;6.296;2022-10-31T14:58:02;17.70;94.30
49441;DHT22;35317;51.978;6.296;2022-10-31T15:03:12;17.60;94.50
49441;DHT22;35317;51.978;6.296;2022-10-31T15:13:49;17.60;94.80
49441;DHT22;35317;51.978;6.296;2022-10-31T15:18:56;17.60;94.90
49441;DHT22;35317;51.978;6.296;2022-10-31T15:24:01;17.50;95.00
49441;DHT22;35317;51.978;6.296;2022-10-31T15:29:05;17.50;95.10
49441;DHT22;35317;51.978;6.296;2022-10-31T15:34:20;17.40;95.20
49441;DHT22;35317;51.978;6.296;2022-10-31T15:39:23;17.40;95.30
49441;DHT22;35317;51.978;6.296;2022-10-31T15:44:33;17.40;95.40
49441;DHT22;35317;51.978;6.296;2022-10-31T15:49:38;17.30;95.50
49441;DHT22;35317;51.978;6.296;2022-10-31T15:54:50;17.20;95.70
49441;DHT22;35317;51.978;6.296;2022-10-31T15:59:55;17.20;95.90
49441;DHT22;35317;51.978;6.296;2022-10-31T16:05:00;17.10;96.00
49441;DHT22;35317;51.978;6.296;2022-10-31T16:10:03;17.10;96.10
49441;DHT22;35317;51.978;6.296;2022-10-31T16:15:13;17.10;96.20
49441;DHT22;35317;51.978;6.296;2022-10-31T16:20:21;17.00;96.30
49441;DHT22;35317;51.978;6.296;2022-10-31T16:25:26;17.00;96.50
49441;DHT22;35317;51.978;6.296;2022-10-31T16:30:42;16.90;96.50
49441;DHT22;35317;51.978;6.296;2022-10-31T16:35:44;16.90;96.70
49441;DHT22;35317;51.978;6.296;2022-10-31T16:40:45;16.90;96.80
49441;DHT22;35317;51.978;6.296;2022-10-31T16:45:51;16.80;96.90
49441;DHT22;35317;51.978;6.296;2022-10-31T16:50:52;16.80;97.00
49441;DHT22;35317;51.978;6.296;2022-10-31T16:55:58;16.70;97.10
49441;DHT22;35317;51.978;6.296;2022-10-31T17:01:04;16.60;97.30
49441;DHT22;35317;51.978;6.296;2022-10-31T17:06:12;16.60;97.50
49441;DHT22;35317;51.978;6.296;2022-10-31T17:11:22;16.50;97.50
49441;DHT22;35317;51.978;6.296;2022-10-31T17:16:24;16.50;97.60
49441;DHT22;35317;51.978;6.296;2022-10-31T17:21:25;16.50;97.70
49441;DHT22;35317;51.978;6.296;2022-10-31T17:26:27;16.40;97.70
49441;DHT22;35317;51.978;6.296;2022-10-31T17:31:30;16.40;97.90
49441;DHT22;35317;51.978;6.296;2022-10-31T17:36:33;16.40;97.90
49441;DHT22;35317;51.978;6.296;2022-10-31T17:41:35;16.30;97.90
49441;DHT22;35317;51.978;6.296;2022-10-31T17:46:36;16.30;98.00
49441;DHT22;35317;51.978;6.296;2022-10-31T17:51:37;16.30;98.10
49441;DHT22;35317;51.978;6.296;2022-10-31T17:56:38;16.30;98.20
49441;DHT22;35317;51.978;6.296;2022-10-31T18:01:38;16.20;98.10
49441;DHT22;35317;51.978;6.296;2022-10-31T18:06:39;16.20;98.20
49441;DHT22;35317;51.978;6.296;2022-10-31T18:11:40;16.20;98.20
49441;DHT22;35317;51.978;6.296;2022-10-31T18:16:41;16.10;98.20
49441;DHT22;35317;51.978;6.296;2022-10-31T18:21:43;16.00;98.30
49441;DHT22;35317;51.978;6.296;2022-10-31T18:26:44;16.00;98.40
49441;DHT22;35317;51.978;6.296;2022-10-31T18:31:45;15.90;98.40
49441;DHT22;35317;51.978;6.296;2022-10-31T18:36:50;15.80;98.60
49441;DHT22;35317;51.978;6.296;2022-10-31T18:41:51;15.80;98.70
49441;DHT22;35317;51.978;6.296;2022-10-31T18:46:54;15.80;98.80
49441;DHT22;35317;51.978;6.296;2022-10-31T18:51:54;15.80;98.70
49441;DHT22;35317;51.978;6.296;2022-10-31T18:56:55;15.90;98.70
49441;DHT22;35317;51.978;6.296;2022-10-31T19:01:56;15.80;98.60
49441;DHT22;35317;51.978;6.296;2022-10-31T19:06:57;15.80;98.80
49441;DHT22;35317;51.978;6.296;2022-10-31T19:11:57;15.70;98.60
49441;DHT22;35317;51.978;6.296;2022-10-31T19:16:58;15.60;98.60
49441;DHT22;35317;51.978;6.296;2022-10-31T19:21:59;15.50;98.60
49441;DHT22;35317;51.978;6.296;2022-10-31T19:27:01;15.50;98.60
49441;DHT22;35317;51.978;6.296;2022-10-31T19:32:03;15.40;98.60
49441;DHT22;35317;51.978;6.296;2022-10-31T19:37:04;15.30;98.60
49441;DHT22;35317;51.978;6.296;2022-10-31T19:42:05;15.10;98.60
49441;DHT22;35317;51.978;6.296;2022-10-31T19:47:05;15.10;98.80
49441;DHT22;35317;51.978;6.296;2022-10-31T19:52:06;15.00;98.90
49441;DHT22;35317;51.978;6.296;2022-10-31T19:57:07;14.90;99.00
49441;DHT22;35317;51.978;6.296;2022-10-31T20:02:11;14.80;99.00
49441;DHT22;35317;51.978;6.296;2022-10-31T20:07:18;14.70;99.10
49441;DHT22;35317;51.978;6.296;2022-10-31T20:12:19;14.70;99.20
49441;DHT22;35317;51.978;6.296;2022-10-31T20:17:20;14.60;99.20
49441;DHT22;35317;51.978;6.296;2022-10-31T20:22:21;14.50;99.20
49441;DHT22;35317;51.978;6.296;2022-10-31T20:27:21;14.50;99.20
49441;DHT22;35317;51.978;6.296;2022-10-31T20:32:22;14.40;99.40
49441;DHT22;35317;51.978;6.296;2022-10-31T20:37:23;14.30;99.20
49441;DHT22;35317;51.978;6.296;2022-10-31T20:42:24;14.30;99.20
49441;DHT22;35317;51.978;6.296;2022-10-31T20:47:25;14.30;99.20
49441;DHT22;35317;51.978;6.296;2022-10-31T20:52:26;14.30;99.10
49441;DHT22;35317;51.978;6.296;2022-10-31T20:57:27;14.30;99.00
49441;DHT22;35317;51.978;6.296;2022-10-31T21:02:28;14.30;98.90
49441;DHT22;35317;51.978;6.296;2022-10-31T21:07:29;14.30;98.80
49441;DHT22;35317;51.978;6.296;2022-10-31T21:12:30;14.30;98.70
49441;DHT22;35317;51.978;6.296;2022-10-31T21:17:32;14.30;98.50
49441;DHT22;35317;51.978;6.296;2022-10-31T21:22:33;14.30;98.40
49441;DHT22;35317;51.978;6.296;2022-10-31T21:27:34;14.30;98.30
49441;DHT22;35317;51.978;6.296;2022-10-31T21:32:34;14.30;98.20
49441;DHT22;35317;51.978;6.296;2022-10-31T21:37:35;14.30;98.00
49441;DHT22;35317;51.978;6.296;2022-10-31T21:42:36;14.40;97.90
49441;DHT22;35317;51.978;6.296;2022-10-31T21:47:37;14.40;97.60
49441;DHT22;35317;51.978;6.296;2022-10-31T21:52:38;14.50;97.30
49441;DHT22;35317;51.978;6.296;2022-10-31T21:57:38;14.60;97.10
49441;DHT22;35317;51.978;6.296;2022-10-31T22:02:39;14.60;96.90
49441;DHT22;35317;51.978;6.296;2022-10-31T22:07:40;14.70;96.60
49441;DHT22;35317;51.978;6.296;2022-10-31T22:12:41;14.80;96.30
49441;DHT22;35317;51.978;6.296;2022-10-31T22:17:41;14.80;96.10
49441;DHT22;35317;51.978;6.296;2022-10-31T22:22:42;14.90;95.90
49441;DHT22;35317;51.978;6.296;2022-10-31T22:27:43;14.90;95.60
49441;DHT22;35317;51.978;6.296;2022-10-31T22:32:44;15.00;95.40
49441;DHT22;35317;51.978;6.296;2022-10-31T22:37:44;15.00;95.30
49441;DHT22;35317;51.978;6.296;2022-10-31T22:42:45;15.00;95.20
49441;DHT22;35317;51.978;6.296;2022-10-31T22:47:46;15.00;95.10
49441;DHT22;35317;51.978;6.296;2022-10-31T22:52:47;15.10;94.90
49441;DHT22;35317;51.978;6.296;2022-10-31T22:57:47;15.10;94.80
49441;DHT22;35317;51.978;6.296;2022-10-31T23:02:48;15.10;94.70
49441;DHT22;35317;51.978;6.296;2022-10-31T23:07:49;15.10;94.60
49441;DHT22;35317;51.978;6.296;2022-10-31T23:12:50;15.20;94.60
49441;DHT22;35317;51.978;6.296;2022-10-31T23:18:10;15.20;94.50
49441;DHT22;35317;51.978;6.296;2022-10-31T23:23:11;15.30;94.40
49441;DHT22;35317;51.978;6.296;2022-10-31T23:28:12;15.40;94.20
49441;DHT22;35317;51.978;6.296;2022-10-31T23:33:13;15.50;94.10
49441;DHT22;35317;51.978;6.296;2022-10-31T23:38:13;15.60;93.90
49441;DHT22;35317;51.978;6.296;2022-10-31T23:43:14;15.60;93.90
49441;DHT22;35317;51.978;6.296;2022-10-31T23:48:15;15.70;93.80
49441;DHT22;35317;51.978;6.296;2022-10-31T23:53:15;15.70;93.80
49441;DHT22;35317;51.978;6.296;2022-10-31T23:58:16;15.80;93.80
